Dades meteomassalio
Diari Summary for Febrer 8, 2018 Units:  Metric    English   Both
« Previous Day
Next Day »
Diari Semanal Mensual Anual Personalitzat
  Maxima: Minima: Mijana:
Temperatura: -17.8 °C -19 °C -16.6 °C
Rosada: -17.8 °C -19.9 °C -18.6 °C
Humitat: Humidity % 63 % 77 %
Velocitat del vent: 0 km/h 0 km/h 30.1 km/h
Racha vent: 0 km/h - -
Vent:- - WNW
Pressio: 0 hPa 34533.8 hPa -
Pluja: 12.7 mm    
Historical Graphs
 
 
Tabular Data for Febrer 8, 2018
Time Temperature Dew Point Pressure Wind Wind Speed Wind Gust Humidity Rainfall Rate (Hourly) solar Conditions
-17.8 °C -17.8 °C 0 hPa Calm     Humidity % 0 mm SolarRadiationWatts/m^2 W/m2 Conditions
00:02 -16.8 °C -18.9 °C 34591.4 hPa NW 26.9 km/h 26.9 km/h 76 % 0 mm 0.0 W/m2 CLR
00:07 -16.8 °C -18.9 °C 34591.4 hPa NW 17.9 km/h 17.9 km/h 76 % 0 mm 0.0 W/m2 CLR
00:12 -16.8 °C -18.9 °C 34591.4 hPa NW 29.8 km/h 29.8 km/h 76 % 0 mm 0.0 W/m2 CLR
00:17 -16.8 °C -18.8 °C 34591.4 hPa NW 29.8 km/h 29.8 km/h 77 % 0 mm 0.0 W/m2 CLR
00:22 -16.8 °C -18.8 °C 34591.4 hPa WNW 44.7 km/h 44.7 km/h 77 % 0 mm 0.0 W/m2 CLR
00:27 -16.8 °C -18.8 °C 34591.4 hPa WNW 23.8 km/h 23.8 km/h 77 % 0 mm 0.0 W/m2 CLR
00:32 -16.8 °C -18.8 °C 34591.4 hPa NW 44.7 km/h 44.7 km/h 77 % 0 mm 0.0 W/m2 CLR
00:37 -16.8 °C -18.8 °C 34591.4 hPa NW 32.8 km/h 32.8 km/h 78 % 0 mm 0.0 W/m2 CLR
00:42 -16.8 °C -18.8 °C 34591.4 hPa NNW 33.6 km/h 33.6 km/h 78 % 0 mm 0.0 W/m2 CLR
00:47 -16.8 °C -18.8 °C 34591.4 hPa NW 29.8 km/h 29.8 km/h 78 % 0 mm 0.0 W/m2 CLR
00:52 -16.8 °C -18.8 °C 34591.4 hPa NW 36.2 km/h 36.2 km/h 78 % 0 mm 0.0 W/m2 CLR
00:57 -17.2 °C -19.1 °C 34591.4 hPa NW 35.7 km/h 35.7 km/h 78 % 0 mm 0.0 W/m2 CLR
01:02 -17.2 °C -19.2 °C 34591.4 hPa NW 47.6 km/h 47.6 km/h 77 % 0 mm 0.0 W/m2 CLR
01:07 -17.2 °C -19.2 °C 34601.5 hPa WNW 32.8 km/h 32.8 km/h 77 % 0 mm 0.0 W/m2 CLR
01:12 -17.2 °C -19.2 °C 34601.5 hPa NW 33.6 km/h 33.6 km/h 77 % 0 mm 0.0 W/m2 CLR
01:17 -17.2 °C -19.2 °C 34591.4 hPa NW 38.8 km/h 38.8 km/h 77 % 0 mm 0.0 W/m2 CLR
01:22 -17.2 °C -19.2 °C 34591.4 hPa NW 35.7 km/h 35.7 km/h 77 % 0 mm 0.0 W/m2 CLR
01:27 -17.2 °C -19.3 °C 34591.4 hPa NW 29.8 km/h 29.8 km/h 76 % 0 mm 0.0 W/m2 CLR
01:32 -17.2 °C -19.3 °C 34591.4 hPa NW 33.6 km/h 33.6 km/h 76 % 0 mm 0.0 W/m2 CLR
01:37 -17.2 °C -19.3 °C 34591.4 hPa NW 38.8 km/h 38.8 km/h 76 % 0 mm 0.0 W/m2 CLR
01:42 -17.2 °C -19.3 °C 34591.4 hPa NW 32.8 km/h 32.8 km/h 76 % 0 mm 0.0 W/m2 CLR
01:47 -17.2 °C -19.3 °C 34591.4 hPa NW 38.8 km/h 38.8 km/h 76 % 0 mm 0.0 W/m2 CLR
01:52 -17.2 °C -19.3 °C 34591.4 hPa NW 36.2 km/h 36.2 km/h 75 % 0 mm 0.0 W/m2 CLR
01:54 -17.2 °C -19.3 °C 34591.4 hPa WNW 35.7 km/h 35.7 km/h 75 % 0 mm 0.0 W/m2 CLR
01:59 -17.2 °C -19.3 °C 34591.4 hPa WNW 47.6 km/h 47.6 km/h 75 % 0 mm 0.0 W/m2 CLR
02:04 -17.2 °C -19.3 °C 34591.4 hPa WNW 50.7 km/h 50.7 km/h 75 % 0 mm 0.0 W/m2 CLR
02:09 -17.2 °C -19.4 °C 34591.4 hPa WNW 44.7 km/h 44.7 km/h 74 % 0 mm 0.0 W/m2 CLR
02:14 -17.2 °C -19.3 °C 34591.4 hPa WNW 35.7 km/h 35.7 km/h 75 % 0 mm 0.0 W/m2 CLR
02:19 -17.2 °C -19.4 °C 34591.4 hPa NW 32.8 km/h 32.8 km/h 74 % 0 mm 0.0 W/m2 CLR
02:24 -17.4 °C -19.7 °C 34591.4 hPa NW 32.8 km/h 32.8 km/h 75 % 0 mm 0.0 W/m2 CLR
02:29 -17.4 °C -19.7 °C 34591.4 hPa NW 32.8 km/h 32.8 km/h 75 % 0 mm 0.0 W/m2 CLR
02:34 -17.4 °C -19.7 °C 34591.4 hPa NW 51.8 km/h 51.8 km/h 75 % 0 mm 0.0 W/m2 CLR
02:39 -17.4 °C -19.7 °C 34591.4 hPa NW 38.8 km/h 38.8 km/h 75 % 0 mm 0.0 W/m2 CLR
02:44 -17.4 °C -19.7 °C 34591.4 hPa NW 35.7 km/h 35.7 km/h 75 % 0 mm 0.0 W/m2 CLR
02:49 -17.4 °C -19.7 °C 34591.4 hPa NW 29.8 km/h 29.8 km/h 75 % 0 mm 0.0 W/m2 CLR
02:54 -17.4 °C -19.7 °C 34591.4 hPa WNW 32.8 km/h 32.8 km/h 75 % 0 mm 0.0 W/m2 CLR
02:59 -17.4 °C -19.7 °C 34591.4 hPa WNW 26.9 km/h 26.9 km/h 75 % 0 mm 0.0 W/m2 CLR
03:04 -17.4 °C -19.7 °C 34591.4 hPa NW 29.8 km/h 29.8 km/h 75 % 0 mm 0.0 W/m2 CLR
03:09 -17.4 °C -19.7 °C 34591.4 hPa NW 32.8 km/h 32.8 km/h 75 % 0 mm 0.0 W/m2 CLR
03:14 -17.4 °C -19.6 °C 34591.4 hPa NW 29.8 km/h 29.8 km/h 76 % 0 mm 0.0 W/m2 CLR
03:19 -17.8 °C -19.8 °C 34591.4 hPa NW 26.9 km/h 26.9 km/h 76 % 0 mm 0.0 W/m2 CLR
03:36 -17.8 °C -19.8 °C 34591.4 hPa NW 41.7 km/h 41.7 km/h 76 % 0 mm 0.0 W/m2 CLR
03:41 -17.8 °C -19.8 °C 34591.4 hPa NW 23.8 km/h 23.8 km/h 76 % 0 mm 0.0 W/m2 CLR
03:46 -17.8 °C -19.8 °C 34591.4 hPa NW 31.1 km/h 31.1 km/h 76 % 0 mm 0.0 W/m2 CLR
03:51 -17.8 °C -19.8 °C 34591.4 hPa NNW 26.9 km/h 26.9 km/h 76 % 0 mm 0.0 W/m2 CLR
03:56 -17.8 °C -19.8 °C 34591.4 hPa NW 32.8 km/h 32.8 km/h 77 % 0 mm 0.0 W/m2 CLR
04:01 -17.8 °C -19.8 °C 34591.4 hPa NW 23.8 km/h 23.8 km/h 77 % 0 mm 0.0 W/m2 CLR
04:06 -17.8 °C -19.8 °C 34591.4 hPa WNW 23.3 km/h 23.3 km/h 77 % 0 mm 0.0 W/m2 CLR
04:11 -17.8 °C -19.8 °C 34591.4 hPa WNW 26.9 km/h 26.9 km/h 77 % 0 mm 0.0 W/m2 CLR
04:16 -17.8 °C -19.8 °C 34591.4 hPa NW 29.8 km/h 29.8 km/h 77 % 0 mm 0.0 W/m2 CLR
04:21 -17.8 °C -19.7 °C 34591.4 hPa NW 32.8 km/h 32.8 km/h 78 % 0 mm 0.0 W/m2 CLR
04:26 -17.8 °C -19.7 °C 34591.4 hPa NW 29.8 km/h 29.8 km/h 78 % 0 mm 0.0 W/m2 CLR
04:31 -17.8 °C -19.7 °C 34591.4 hPa NW 29.8 km/h 29.8 km/h 78 % 0 mm 0.0 W/m2 CLR
04:36 -17.8 °C -19.7 °C 34591.4 hPa WNW 32.8 km/h 32.8 km/h 78 % 0 mm 0.0 W/m2 CLR
04:41 -17.8 °C -19.7 °C 34577.8 hPa NW 29.8 km/h 29.8 km/h 78 % 0 mm 0.0 W/m2 CLR
04:46 -17.8 °C -19.7 °C 34577.8 hPa WNW 38.8 km/h 38.8 km/h 78 % 0 mm 0.0 W/m2 CLR
04:51 -17.8 °C -19.8 °C 34577.8 hPa NW 29.8 km/h 29.8 km/h 77 % 0 mm 0.0 W/m2 CLR
04:56 -17.8 °C -19.8 °C 34577.8 hPa WNW 26.9 km/h 26.9 km/h 77 % 0 mm 0.0 W/m2 CLR
05:01 -17.8 °C -19.8 °C 34577.8 hPa West 11.9 km/h 11.9 km/h 77 % 0 mm 0.0 W/m2 CLR
05:06 -17.8 °C -19.8 °C 34577.8 hPa West 10.3 km/h 10.3 km/h 77 % 0 mm 0.0 W/m2 CLR
05:11 -18.1 °C -19.9 °C 34591.4 hPa NNW 20.9 km/h 20.9 km/h 78 % 0 mm 0.0 W/m2 CLR
05:16 -18.1 °C -19.9 °C 34591.4 hPa NW 25.9 km/h 25.9 km/h 78 % 0 mm 0.0 W/m2 CLR
05:21 -18.1 °C -19.9 °C 34591.4 hPa NW 33.6 km/h 33.6 km/h 79 % 0 mm 0.0 W/m2 CLR
05:26 -17.8 °C -19.6 °C 34591.4 hPa NW 38.8 km/h 38.8 km/h 79 % 0 mm 0.0 W/m2 CLR
05:31 -17.8 °C -19.7 °C 34591.4 hPa NW 31.1 km/h 31.1 km/h 78 % 0 mm 0.0 W/m2 CLR
05:36 -17.8 °C -19.7 °C 34591.4 hPa NW 35.7 km/h 35.7 km/h 78 % 0 mm 0.0 W/m2 CLR
05:41 -17.4 °C -19.3 °C 34591.4 hPa NW 35.7 km/h 35.7 km/h 78 % 0 mm 0.0 W/m2 CLR
05:46 -17.4 °C -19.3 °C 34591.4 hPa NW 38.8 km/h 38.8 km/h 78 % 0 mm 0.0 W/m2 CLR
05:51 -17.4 °C -19.3 °C 34591.4 hPa WNW 35.7 km/h 35.7 km/h 78 % 0 mm 0.0 W/m2 CLR
05:56 -17.4 °C -19.3 °C 34591.4 hPa NNW 29.8 km/h 29.8 km/h 78 % 0 mm 0.0 W/m2 CLR
06:01 -17.8 °C -19.7 °C 34591.4 hPa NW 26.9 km/h 26.9 km/h 78 % 0 mm 0.0 W/m2 CLR
06:06 -17.8 °C -19.6 °C 34591.4 hPa NW 26.9 km/h 26.9 km/h 79 % 0 mm 0.0 W/m2 CLR
06:11 -17.8 °C -19.6 °C 34591.4 hPa NW 26.9 km/h 26.9 km/h 79 % 0 mm 0.0 W/m2 CLR
06:16 -17.8 °C -19.6 °C 34591.4 hPa WNW 23.8 km/h 23.8 km/h 79 % 0 mm 0.0 W/m2 CLR
06:21 -17.8 °C -19.6 °C 34577.8 hPa WNW 35.7 km/h 35.7 km/h 79 % 0 mm 0.0 W/m2 CLR
06:26 -17.8 °C -19.7 °C 34577.8 hPa NW 29.8 km/h 29.8 km/h 78 % 0 mm 0.0 W/m2 CLR
06:31 -17.8 °C -19.7 °C 34577.8 hPa NW 29.8 km/h 29.8 km/h 78 % 0 mm 0.0 W/m2 CLR
06:36 -17.8 °C -19.7 °C 34577.8 hPa NW 29.8 km/h 29.8 km/h 78 % 0 mm 0.0 W/m2 CLR
06:41 -17.8 °C -19.7 °C 34577.8 hPa NW 29.8 km/h 29.8 km/h 78 % 0 mm 0.0 W/m2 CLR
06:46 -17.8 °C -19.6 °C 34577.8 hPa NW 35.7 km/h 35.7 km/h 79 % 0 mm 0.0 W/m2 CLR
06:51 -17.8 °C -19.6 °C 34577.8 hPa NW 44.7 km/h 44.7 km/h 79 % 0 mm 0.0 W/m2 CLR
06:56 -17.4 °C -19.3 °C 34577.8 hPa WNW 36.2 km/h 36.2 km/h 78 % 0 mm 0.0 W/m2 CLR
07:01 -17.4 °C -19.3 °C 34577.8 hPa WNW 32.8 km/h 32.8 km/h 78 % 0 mm 0.0 W/m2 CLR
07:06 -17.4 °C -19.3 °C 34577.8 hPa WNW 41.7 km/h 41.7 km/h 79 % 0 mm 0.0 W/m2 CLR
07:11 -17.4 °C -19.3 °C 34591.4 hPa WNW 29.8 km/h 29.8 km/h 79 % 0 mm 0.0 W/m2 CLR
07:16 -17.4 °C -19.3 °C 34591.4 hPa West 36.2 km/h 36.2 km/h 79 % 0 mm 0.0 W/m2 CLR
07:21 -17.8 °C -19.6 °C 34591.4 hPa WNW 26.9 km/h 26.9 km/h 79 % 0 mm 0.0 W/m2 CLR
07:26 -17.8 °C -19.6 °C 34591.4 hPa WNW 23.8 km/h 23.8 km/h 79 % 0 mm 0.0 W/m2 CLR
07:31 -17.8 °C -19.6 °C 34591.4 hPa WNW 20.8 km/h 20.8 km/h 79 % 0 mm 0.0 W/m2 CLR
07:36 -18.1 °C -19.9 °C 34591.4 hPa NW 9 km/h 9 km/h 79 % 0 mm 0.0 W/m2 CLR
07:41 -18.1 °C -19.8 °C 34591.4 hPa WNW 23.8 km/h 23.8 km/h 80 % 0 mm 0.0 W/m2 CLR
07:46 -18.1 °C -19.8 °C 34591.4 hPa NW 20.9 km/h 20.9 km/h 80 % 0 mm 0.0 W/m2 CLR
07:51 -18.1 °C -19.8 °C 34591.4 hPa NW 15 km/h 15 km/h 80 % 0 mm 0.0 W/m2 CLR
07:56 -18.1 °C -19.8 °C 34591.4 hPa NW 11.9 km/h 11.9 km/h 80 % 0 mm 0.0 W/m2 CLR
08:01 -18.1 °C -19.8 °C 34591.4 hPa NNW 15 km/h 15 km/h 80 % 0 mm 5.0 W/m2 OVC
08:07 -18.1 °C -19.8 °C 34591.4 hPa WNW 17.9 km/h 17.9 km/h 80 % 0 mm 7.0 W/m2 OVC
08:12 -18.1 °C -19.8 °C 34591.4 hPa NW 20.9 km/h 20.9 km/h 80 % 0 mm 9.0 W/m2 BKN
08:17 -18.1 °C -19.7 °C 34591.4 hPa NNW 26.9 km/h 26.9 km/h 81 % 0 mm 11.0 W/m2 BKN
08:22 -18.1 °C -19.7 °C 34591.4 hPa NW 10.3 km/h 10.3 km/h 81 % 0 mm 14.0 W/m2 BKN
08:27 -18.1 °C -19.7 °C 34591.4 hPa NW 35.7 km/h 35.7 km/h 81 % 0 mm 16.0 W/m2 BKN
08:32 -17.8 °C -19.5 °C 34591.4 hPa NW 23.8 km/h 23.8 km/h 80 % 0 mm 19.0 W/m2 BKN
08:37 -17.8 °C -19.5 °C 34591.4 hPa NW 23.8 km/h 23.8 km/h 80 % 0 mm 26.0 W/m2 BKN
08:42 -17.4 °C -19.3 °C 34591.4 hPa NW 23.8 km/h 23.8 km/h 79 % 0 mm 37.0 W/m2 BKN
08:47 -17.2 °C -18.9 °C 34591.4 hPa NNW 23.3 km/h 23.3 km/h 79 % 0 mm 51.0 W/m2 SCT
08:52 -17.2 °C -18.9 °C 34591.4 hPa NW 35.7 km/h 35.7 km/h 79 % 0 mm 62.0 W/m2 SCT
08:57 -17.2 °C -18.9 °C 34591.4 hPa NW 35.7 km/h 35.7 km/h 79 % 0 mm 76.0 W/m2 FEW
09:02 -17.2 °C -19.1 °C 34601.5 hPa NNW 26.9 km/h 26.9 km/h 78 % 0 mm 86.0 W/m2 CLR
09:07 -17.2 °C -19.1 °C 34601.5 hPa NW 26.9 km/h 26.9 km/h 78 % 0 mm 105.0 W/m2 FEW
09:12 -16.8 °C -18.8 °C 34601.5 hPa NW 20.9 km/h 20.9 km/h 77 % 0 mm 123.0 W/m2 CLR
09:17 -16.8 °C -18.8 °C 34601.5 hPa NNW 26.9 km/h 26.9 km/h 77 % 0 mm 109.0 W/m2 CLR
09:22 -16.8 °C -18.9 °C 34601.5 hPa NNW 26.9 km/h 26.9 km/h 76 % 0 mm 153.0 W/m2 CLR
09:27 -16.6 °C -18.7 °C 34601.5 hPa NW 38.8 km/h 38.8 km/h 76 % 0 mm 169.0 W/m2 CLR
09:32 -16.6 °C -18.8 °C 34601.5 hPa NNW 44.7 km/h 44.7 km/h 75 % 0 mm 137.0 W/m2 CLR
09:37 -16.6 °C -18.8 °C 34611.7 hPa NNW 47.6 km/h 47.6 km/h 75 % 0 mm 158.0 W/m2 CLR
09:42 -16.2 °C -18.4 °C 34601.5 hPa WNW 41.7 km/h 41.7 km/h 75 % 0 mm 216.0 W/m2 CLR
09:47 -16.2 °C -18.4 °C 34611.7 hPa NNW 44.7 km/h 44.7 km/h 75 % 0 mm 246.0 W/m2 CLR
09:52 -16.2 °C -18.4 °C 34611.7 hPa NNW 51.8 km/h 51.8 km/h 75 % 0 mm 267.0 W/m2 CLR
09:57 -16.2 °C -18.4 °C 34601.5 hPa NNW 47.6 km/h 47.6 km/h 75 % 0 mm 267.0 W/m2 CLR
10:02 -16.2 °C -18.4 °C 34611.7 hPa NNW 41.7 km/h 41.7 km/h 75 % 0 mm 294.0 W/m2 CLR
10:07 -15.9 °C -18.2 °C 34611.7 hPa NNW 50.7 km/h 50.7 km/h 75 % 0 mm 306.0 W/m2 CLR
10:12 -15.9 °C -18.2 °C 34601.5 hPa NNW 50.7 km/h 50.7 km/h 75 % 0 mm 320.0 W/m2 CLR
10:17 -15.9 °C -18.2 °C 34601.5 hPa WNW 50.7 km/h 50.7 km/h 75 % 0 mm 332.0 W/m2 CLR
10:22 -15.9 °C -18.2 °C 34601.5 hPa NW 44.7 km/h 44.7 km/h 75 % 0 mm 343.0 W/m2 CLR
10:27 -15.9 °C -18.3 °C 34601.5 hPa NNW 62.6 km/h 62.6 km/h 74 % 0 mm 355.0 W/m2 CLR
10:32 -15.6 °C -17.9 °C 34601.5 hPa NNW 41.7 km/h 41.7 km/h 75 % 0 mm 390.0 W/m2 CLR
10:37 -15.6 °C -17.9 °C 34601.5 hPa North 53.6 km/h 53.6 km/h 74 % 0 mm 388.0 W/m2 CLR
10:42 -15.6 °C -17.9 °C 34601.5 hPa NNW 56.6 km/h 56.6 km/h 74 % 0 mm 397.0 W/m2 CLR
10:47 -15.3 °C -17.7 °C 34601.5 hPa NNW 41.7 km/h 41.7 km/h 74 % 0 mm 403.0 W/m2 CLR
10:52 -15.3 °C -17.9 °C 34611.7 hPa NW 68.6 km/h 68.6 km/h 72 % 0 mm 464.0 W/m2 CLR
10:57 -15 °C -17.4 °C 34611.7 hPa NNW 41.7 km/h 41.7 km/h 73 % 0 mm 480.0 W/m2 CLR
11:02 -15.3 °C -17.9 °C 34611.7 hPa NW 47.6 km/h 47.6 km/h 72 % 0 mm 230.0 W/m2 CLR
11:07 -15.3 °C -17.7 °C 34611.7 hPa North 41.7 km/h 41.7 km/h 74 % 0 mm 461.0 W/m2 CLR
11:12 -15.3 °C -17.8 °C 34611.7 hPa North 65.5 km/h 65.5 km/h 73 % 0 mm 214.0 W/m2 CLR
11:17 -15.3 °C -17.9 °C 34611.7 hPa NNW 54.4 km/h 54.4 km/h 72 % 0 mm 151.0 W/m2 CLR
11:22 -15.3 °C -17.8 °C 34611.7 hPa NW 32.8 km/h 32.8 km/h 73 % 0 mm 123.0 W/m2 CLR
11:27 -15.3 °C -17.8 °C 34611.7 hPa NNW 56.6 km/h 56.6 km/h 73 % 0 mm 95.0 W/m2 CLR
11:32 -15.6 °C -18.1 °C 34611.7 hPa North 44.7 km/h 44.7 km/h 73 % 0 mm 111.0 W/m2 CLR
11:37 -15.6 °C -18.1 °C 34611.7 hPa NNW 41.7 km/h 41.7 km/h 73 % 0 mm 95.0 W/m2 CLR
11:42 -15.6 °C -18.2 °C 34611.7 hPa NNW 49.2 km/h 49.2 km/h 72 % 0 mm 121.0 W/m2 CLR
11:47 -15.6 °C -18.2 °C 34601.5 hPa North 50.7 km/h 50.7 km/h 72 % 0 mm 113.0 W/m2 CLR
11:52 -15.6 °C -18.2 °C 34601.5 hPa NNW 47.6 km/h 47.6 km/h 72 % 0 mm 113.0 W/m2 CLR
11:57 -15.3 °C -17.9 °C 34611.7 hPa North 50.7 km/h 50.7 km/h 72 % 0 mm 128.0 W/m2 CLR
12:02 -15.3 °C -17.9 °C 34601.5 hPa North 50.7 km/h 50.7 km/h 72 % 0 mm 100.0 W/m2 CLR
12:07 -15.3 °C -17.9 °C 34601.5 hPa North 44.7 km/h 44.7 km/h 72 % 0 mm 83.0 W/m2 CLR
12:12 -15.6 °C -18.1 °C 34601.5 hPa North 41.7 km/h 41.7 km/h 73 % 0 mm 109.0 W/m2 CLR
12:17 -15.3 °C -17.8 °C 34601.5 hPa North 44.7 km/h 44.7 km/h 73 % 0 mm 121.0 W/m2 CLR
12:22 -15.3 °C -17.7 °C 34601.5 hPa NNW 38.8 km/h 38.8 km/h 74 % 0 mm 109.0 W/m2 CLR
12:27 -15.3 °C -17.8 °C 34591.4 hPa NNE 56.6 km/h 56.6 km/h 73 % 0 mm 123.0 W/m2 CLR
12:32 -15.3 °C -17.8 °C 34601.5 hPa NNW 44.7 km/h 44.7 km/h 73 % 0 mm 120.0 W/m2 CLR
12:37 -15.3 °C -17.9 °C 34591.4 hPa NNW 50.7 km/h 50.7 km/h 72 % 0 mm 91.0 W/m2 CLR
12:42 -15.3 °C -17.8 °C 34591.4 hPa North 50.7 km/h 50.7 km/h 73 % 0 mm 105.0 W/m2 CLR
12:47 -15.3 °C -17.7 °C 34591.4 hPa North 41.7 km/h 41.7 km/h 74 % 0 mm 109.0 W/m2 CLR
12:52 -15.3 °C -17.7 °C 34591.4 hPa North 41.7 km/h 41.7 km/h 74 % 0 mm 95.0 W/m2 CLR
12:57 -15.6 °C -17.9 °C 34591.4 hPa North 59.5 km/h 59.5 km/h 74 % 0 mm 77.0 W/m2 CLR
13:02 -15.6 °C -17.9 °C 34577.8 hPa NNW 38.8 km/h 38.8 km/h 74 % 0 mm 91.0 W/m2 CLR
13:07 -15.6 °C -17.9 °C 34577.8 hPa North 44.7 km/h 44.7 km/h 75 % 0 mm 109.0 W/m2 CLR
13:12 -15.6 °C -17.9 °C 34577.8 hPa North 56.6 km/h 56.6 km/h 75 % 0 mm 132.0 W/m2 CLR
13:17 -15.3 °C -17.6 °C 34577.8 hPa NNW 38.8 km/h 38.8 km/h 75 % 0 mm 123.0 W/m2 CLR
13:22 -15.3 °C -17.6 °C 34577.8 hPa NNW 47.6 km/h 47.6 km/h 75 % 0 mm 114.0 W/m2 CLR
13:27 -15.3 °C -17.6 °C 34567.7 hPa NNW 47.6 km/h 47.6 km/h 75 % 0 mm 88.0 W/m2 CLR
13:32 -15.3 °C -17.6 °C 34567.7 hPa NNW 47.6 km/h 47.6 km/h 75 % 0 mm 109.0 W/m2 CLR
13:37 -15.3 °C -17.4 °C 34577.8 hPa NW 32.8 km/h 32.8 km/h 76 % 0 mm 139.0 W/m2 CLR
13:42 -15.3 °C -17.4 °C 34567.7 hPa NNW 28.5 km/h 28.5 km/h 76 % 0 mm 144.0 W/m2 CLR
13:47 -15.3 °C -17.4 °C 34567.7 hPa NNE 25.9 km/h 25.9 km/h 76 % 0 mm 185.0 W/m2 CLR
13:52 -15.3 °C -17.6 °C 34567.7 hPa NNW 38.8 km/h 38.8 km/h 75 % 0 mm 213.0 W/m2 CLR
13:57 -15 °C -17.3 °C 34567.7 hPa NNW 38.8 km/h 38.8 km/h 75 % 0 mm 137.0 W/m2 CLR
14:02 -15 °C -17.4 °C 34567.7 hPa NNE 38.8 km/h 38.8 km/h 74 % 0 mm 109.0 W/m2 CLR
14:07 -15 °C -17.4 °C 34567.7 hPa NNW 47.6 km/h 47.6 km/h 74 % 0 mm 163.0 W/m2 CLR
14:12 -15 °C -17.6 °C 34567.7 hPa North 38.8 km/h 38.8 km/h 72 % 0 mm 153.0 W/m2 CLR
14:17 -15 °C -17.4 °C 34567.7 hPa North 38.8 km/h 38.8 km/h 73 % 0 mm 169.0 W/m2 CLR
14:23 -15 °C -17.6 °C 34567.7 hPa NNW 31.1 km/h 31.1 km/h 72 % 0 mm 176.0 W/m2 CLR
14:28 -15 °C -17.6 °C 34554.1 hPa NNW 38.8 km/h 38.8 km/h 72 % 0 mm 84.0 W/m2 CLR
14:33 -15 °C -17.6 °C 34554.1 hPa North 50.7 km/h 50.7 km/h 72 % 0 mm 118.0 W/m2 CLR
14:38 -15 °C -17.4 °C 34554.1 hPa NNW 38.8 km/h 38.8 km/h 73 % 0 mm 179.0 W/m2 CLR
14:43 -15 °C -17.6 °C 34554.1 hPa NW 44.7 km/h 44.7 km/h 72 % 0 mm 165.0 W/m2 CLR
14:48 -15 °C -17.4 °C 34554.1 hPa North 29.8 km/h 29.8 km/h 73 % 0 mm 178.0 W/m2 CLR
14:53 -14.4 °C -17.1 °C 34544 hPa NNW 41.7 km/h 41.7 km/h 71 % 0 mm 663.0 W/m2 CLR
14:58 -14.1 °C -16.9 °C 34544 hPa NW 35.7 km/h 35.7 km/h 70 % 0 mm 213.0 W/m2 CLR
15:03 -14.1 °C -17 °C 34544 hPa NW 33.6 km/h 33.6 km/h 69 % 0 mm 116.0 W/m2 CLR
15:08 -14.4 °C -17.2 °C 34544 hPa NNW 29.8 km/h 29.8 km/h 70 % 0 mm 160.0 W/m2 CLR
15:13 -14.4 °C -17.1 °C 34544 hPa North 29.8 km/h 29.8 km/h 71 % 0 mm 149.0 W/m2 CLR
15:18 -14.4 °C -17.1 °C 34544 hPa NW 29.8 km/h 29.8 km/h 71 % 0 mm 246.0 W/m2 CLR
15:23 -14.1 °C -16.9 °C 34544 hPa North 23.8 km/h 23.8 km/h 70 % 0 mm 246.0 W/m2 CLR
15:28 -14.1 °C -16.9 °C 34544 hPa North 29.8 km/h 29.8 km/h 70 % 0 mm 202.0 W/m2 CLR
15:33 -14.1 °C -17 °C 34544 hPa Calm     69 % 0 mm 162.0 W/m2 CLR
15:38 -14.1 °C -17.3 °C 34544 hPa North 32.8 km/h 32.8 km/h 66 % 0 mm 162.0 W/m2 CLR
15:43 -14.1 °C -17.4 °C 34544 hPa NW 32.8 km/h 32.8 km/h 65 % 0 mm 114.0 W/m2 CLR
15:48 -14.1 °C -17.4 °C 34544 hPa North 23.8 km/h 23.8 km/h 65 % 0 mm 100.0 W/m2 CLR
15:53 -14.4 °C -17.7 °C 34544 hPa NNW 23.8 km/h 23.8 km/h 66 % 0 mm 49.0 W/m2 FEW
15:58 -14.4 °C -17.8 °C 34533.8 hPa NNW 26.9 km/h 26.9 km/h 65 % 0 mm 60.0 W/m2 SCT
16:03 -14.4 °C -17.8 °C 34544 hPa NW 15 km/h 15 km/h 65 % 0 mm 67.0 W/m2 SCT
16:08 -14.4 °C -17.8 °C 34544 hPa NNW 29.8 km/h 29.8 km/h 65 % 0 mm 39.0 W/m2 SCT
16:13 -14.4 °C -18 °C 34544 hPa NNW 50.7 km/h 50.7 km/h 63 % 0 mm 46.0 W/m2 BKN
16:18 -14.4 °C -18 °C 34544 hPa North 44.7 km/h 44.7 km/h 63 % 0 mm 69.0 W/m2 SCT
16:23 -14.4 °C -18 °C 34544 hPa North 44.1 km/h 44.1 km/h 63 % 0 mm 56.0 W/m2 SCT
16:28 -14.4 °C -18 °C 34544 hPa NNW 47.6 km/h 47.6 km/h 63 % 0 mm 54.0 W/m2 SCT
16:33 -14.4 °C -18 °C 34544 hPa NNW 38.8 km/h 38.8 km/h 63 % 0 mm 62.0 W/m2 SCT
16:38 -14.4 °C -18 °C 34544 hPa North 41.7 km/h 41.7 km/h 63 % 0 mm 46.0 W/m2 SCT
16:43 -14.4 °C -18 °C 34544 hPa North 50.7 km/h 50.7 km/h 63 % 0 mm 30.0 W/m2 BKN
16:48 -14.7 °C -18.3 °C 34544 hPa NNW 41.7 km/h 41.7 km/h 63 % 0 mm 40.0 W/m2 BKN
16:53 -14.7 °C -18.3 °C 34544 hPa NNW 44.7 km/h 44.7 km/h 63 % 0 mm 21.0 W/m2 BKN
16:58 -14.7 °C -18.2 °C 34544 hPa North 41.7 km/h 41.7 km/h 64 % 0 mm 25.0 W/m2 BKN
17:03 -14.7 °C -18.2 °C 34544 hPa NNW 38.8 km/h 38.8 km/h 64 % 0 mm 21.0 W/m2 BKN
17:08 -14.7 °C -18.3 °C 34544 hPa North 47.6 km/h 47.6 km/h 63 % 0 mm 19.0 W/m2 BKN
17:13 -14.7 °C -18.3 °C 34544 hPa NNW 38.8 km/h 38.8 km/h 63 % 0 mm 23.0 W/m2 BKN
17:18 -14.7 °C -18.2 °C 34554.1 hPa NNW 51.8 km/h 51.8 km/h 64 % 0 mm 16.0 W/m2 BKN
17:23 -14.7 °C -18.3 °C 34554.1 hPa NNW 44.7 km/h 44.7 km/h 63 % 0 mm 18.0 W/m2 BKN
17:28 -14.7 °C -18.2 °C 34554.1 hPa NW 32.8 km/h 32.8 km/h 64 % 0 mm 21.0 W/m2 BKN
17:33 -14.7 °C -18.2 °C 34554.1 hPa North 41.4 km/h 41.4 km/h 64 % 0 mm 23.0 W/m2 BKN
17:38 -14.7 °C -18.2 °C 34554.1 hPa North 50.7 km/h 50.7 km/h 64 % 0 mm 18.0 W/m2 BKN
17:43 -14.7 °C -18.2 °C 34544 hPa NNW 38.8 km/h 38.8 km/h 64 % 0 mm 12.0 W/m2 BKN
17:48 -15 °C -18.5 °C 34554.1 hPa NNW 38.8 km/h 38.8 km/h 64 % 0 mm 11.0 W/m2 BKN
17:53 -15 °C -18.4 °C 34554.1 hPa NNW 44.7 km/h 44.7 km/h 65 % 0 mm 9.0 W/m2 BKN
17:58 -15 °C -18.4 °C 34554.1 hPa North 33.6 km/h 33.6 km/h 65 % 0 mm 5.0 W/m2 OVC
18:03 -15 °C -18.2 °C 34567.7 hPa ENE 28.5 km/h 28.5 km/h 66 % 0 mm 0.0 W/m2 OVC
18:08 -15.3 °C -18.1 °C 34567.7 hPa East 29.8 km/h 29.8 km/h 70 % 0 mm 0.0 W/m2 OVC
18:13 -15.6 °C -17.9 °C 34567.7 hPa SE 23.8 km/h 23.8 km/h 74 % 0 mm 0.0 W/m2 OVC
18:18 -15.9 °C -17.9 °C 34577.8 hPa ESE 10.3 km/h 10.3 km/h 77 % 0 mm 0.0 W/m2 OVC
18:23 -15.9 °C -17.7 °C 34577.8 hPa ESE 29.8 km/h 29.8 km/h 79 % 0 mm 0.0 W/m2 OVC
18:28 -15.9 °C -17.6 °C 34591.4 hPa ESE 9 km/h 9 km/h 81 % 0 mm 0.0 W/m2 OVC
18:33 -16.2 °C -17.8 °C 34591.4 hPa SSE 18.2 km/h 18.2 km/h 82 % 0 mm 0.0 W/m2 OVC
18:38 -16.2 °C -17.7 °C 34591.4 hPa South 17.9 km/h 17.9 km/h 83 % 0 mm 0.0 W/m2 CLR
18:43 -16.2 °C -17.6 °C 34591.4 hPa SSE 11.9 km/h 11.9 km/h 84 % 7.62 mm 0.0 W/m2 RA
18:48 -16.6 °C -17.8 °C 34591.4 hPa SE 6 km/h 6 km/h 85 % 7.62 mm 0.0 W/m2 CLR
18:54 -16.6 °C -17.7 °C 34591.4 hPa SSE 10.3 km/h 10.3 km/h 86 % 7.62 mm 0.0 W/m2 CLR
18:59 -16.6 °C -17.6 °C 34591.4 hPa SE 12.9 km/h 12.9 km/h 87 % 12.7 mm 0.0 W/m2 RA
19:04 -16.6 °C -17.6 °C 34601.5 hPa SSE 11.9 km/h 11.9 km/h 87 % 12.7 mm 0.0 W/m2 CLR
19:09 -16.8 °C -17.8 °C 34601.5 hPa South 20.9 km/h 20.9 km/h 88 % 12.7 mm 0.0 W/m2 CLR
19:14 -16.8 °C -17.8 °C 34601.5 hPa SSE 15 km/h 15 km/h 88 % 12.7 mm 0.0 W/m2 CLR
19:19 -16.8 °C -17.7 °C 34601.5 hPa South 18.2 km/h 18.2 km/h 89 % 12.7 mm 0.0 W/m2 CLR
19:24 -16.8 °C -17.7 °C 34601.5 hPa South 9 km/h 9 km/h 89 % 12.7 mm 0.0 W/m2 CLR
19:29 -16.8 °C -17.7 °C 34601.5 hPa SSE 6 km/h 6 km/h 89 % 12.7 mm 0.0 W/m2 CLR
19:34 -16.8 °C -17.7 °C 34601.5 hPa SSE 11.9 km/h 11.9 km/h 90 % 12.7 mm 0.0 W/m2 CLR
19:39 -16.8 °C -17.7 °C 34611.7 hPa SSE 9 km/h 9 km/h 90 % 7.62 mm 0.0 W/m2 CLR
19:44 -16.8 °C -17.7 °C 34611.7 hPa SSW 17.9 km/h 17.9 km/h 90 % 7.62 mm 0.0 W/m2 CLR
19:49 -16.8 °C -17.7 °C 34611.7 hPa South 9 km/h 9 km/h 90 % 7.62 mm 0.0 W/m2 CLR
19:54 -16.8 °C -17.7 °C 34611.7 hPa SSE 20.8 km/h 20.8 km/h 90 % 7.62 mm 0.0 W/m2 CLR
19:59 -16.8 °C -17.7 °C 34611.7 hPa SSW 11.9 km/h 11.9 km/h 90 % 0 mm 0.0 W/m2 CLR
20:04 -16.8 °C -17.7 °C 34611.7 hPa SW 9 km/h 9 km/h 90 % 0 mm 0.0 W/m2 CLR
20:09 -16.8 °C -17.7 °C 34611.7 hPa SW 15 km/h 15 km/h 90 % 0 mm 0.0 W/m2 CLR
20:14 -16.8 °C -17.7 °C 34611.7 hPa Calm     90 % 0 mm 0.0 W/m2 CLR
20:19 -16.8 °C -17.7 °C 34625.2 hPa Calm     90 % 0 mm 0.0 W/m2 CLR
20:24 -16.8 °C -17.7 °C 34625.2 hPa NW 10.3 km/h 10.3 km/h 90 % 0 mm 0.0 W/m2 CLR
20:29 -16.8 °C -17.7 °C 34625.2 hPa NW 20.9 km/h 20.9 km/h 90 % 0 mm 0.0 W/m2 CLR
20:34 -16.8 °C -17.7 °C 34611.7 hPa NW 20.9 km/h 20.9 km/h 90 % 0 mm 0.0 W/m2 CLR
20:39 -16.8 °C -17.7 °C 34611.7 hPa NW 23.8 km/h 23.8 km/h 89 % 0 mm 0.0 W/m2 CLR
20:44 -16.8 °C -17.8 °C 34601.5 hPa WNW 29.8 km/h 29.8 km/h 88 % 0 mm 0.0 W/m2 CLR
20:49 -16.8 °C -17.7 °C 34601.5 hPa WNW 15 km/h 15 km/h 89 % 0 mm 0.0 W/m2 CLR
20:54 -16.8 °C -17.7 °C 34601.5 hPa WNW 20.9 km/h 20.9 km/h 89 % 0 mm 0.0 W/m2 CLR
20:59 -16.8 °C -17.7 °C 34601.5 hPa WNW 12.9 km/h 12.9 km/h 89 % 0 mm 0.0 W/m2 CLR
21:04 -17.2 °C -18.1 °C 34611.7 hPa WNW 23.8 km/h 23.8 km/h 89 % 0 mm 0.0 W/m2 CLR
21:09 -17.2 °C -18.1 °C 34611.7 hPa WNW 20.9 km/h 20.9 km/h 89 % 0 mm 0.0 W/m2 CLR
21:14 -17.2 °C -18.1 °C 34611.7 hPa West 26.9 km/h 26.9 km/h 89 % 0 mm 0.0 W/m2 CLR
21:19 -17.2 °C -18.1 °C 34611.7 hPa West 15.6 km/h 15.6 km/h 89 % 0 mm 0.0 W/m2 CLR
21:24 -17.2 °C -18.1 °C 34611.7 hPa West 23.3 km/h 23.3 km/h 89 % 0 mm 0.0 W/m2 CLR
21:29 -17.2 °C -18.1 °C 34625.2 hPa West 17.9 km/h 17.9 km/h 89 % 0 mm 0.0 W/m2 CLR
21:34 -17.4 °C -18.4 °C 34625.2 hPa West 11.9 km/h 11.9 km/h 89 % 0 mm 0.0 W/m2 CLR
21:39 -17.4 °C -18.3 °C 34625.2 hPa West 9 km/h 9 km/h 90 % 0 mm 0.0 W/m2 CLR
21:44 -17.4 °C -18.3 °C 34625.2 hPa West 6 km/h 6 km/h 90 % 0 mm 0.0 W/m2 CLR
21:49 -17.8 °C -18.6 °C 34625.2 hPa WSW 9 km/h 9 km/h 90 % 0 mm 0.0 W/m2 CLR
21:54 -17.4 °C -18.3 °C 34635.4 hPa WSW 9 km/h 9 km/h 90 % 0 mm 0.0 W/m2 CLR
21:59 -17.8 °C -18.6 °C 34635.4 hPa WSW 9 km/h 9 km/h 90 % 0 mm 0.0 W/m2 CLR
22:04 -17.8 °C -18.6 °C 34625.2 hPa WSW 9 km/h 9 km/h 90 % 0 mm 0.0 W/m2 CLR
22:09 -17.8 °C -18.6 °C 34625.2 hPa WSW 9 km/h 9 km/h 90 % 0 mm 0.0 W/m2 CLR
22:14 -17.8 °C -18.6 °C 34625.2 hPa WSW 10.3 km/h 10.3 km/h 90 % 0 mm 0.0 W/m2 CLR
22:19 -17.8 °C -18.6 °C 34625.2 hPa WSW 10.3 km/h 10.3 km/h 90 % 0 mm 0.0 W/m2 CLR
22:24 -17.8 °C -18.6 °C 34625.2 hPa WSW 10.3 km/h 10.3 km/h 90 % 0 mm 0.0 W/m2 CLR
22:29 -17.8 °C -18.5 °C 34625.2 hPa WSW 6 km/h 6 km/h 91 % 0 mm 0.0 W/m2 CLR
22:34 -17.8 °C -18.5 °C 34625.2 hPa SW 9 km/h 9 km/h 91 % 0 mm 0.0 W/m2 CLR
22:39 -18.1 °C -18.8 °C 34625.2 hPa SW 10.3 km/h 10.3 km/h 91 % 0 mm 0.0 W/m2 CLR
22:44 -18.1 °C -18.8 °C 34625.2 hPa SW 10.3 km/h 10.3 km/h 91 % 0 mm 0.0 W/m2 CLR
22:49 -18.1 °C -18.8 °C 34625.2 hPa West 9 km/h 9 km/h 91 % 0 mm 0.0 W/m2 CLR
22:54 -18.1 °C -18.8 °C 34625.2 hPa Calm     91 % 0 mm 0.0 W/m2 CLR
22:59 -18.1 °C -18.8 °C 34625.2 hPa Calm     91 % 0 mm 0.0 W/m2 CLR
23:04 -18.1 °C -18.8 °C 34635.4 hPa South 9 km/h 9 km/h 91 % 0 mm 0.0 W/m2 CLR
23:09 -18.1 °C -18.8 °C 34635.4 hPa SE 9 km/h 9 km/h 91 % 0 mm 0.0 W/m2 CLR
23:14 -18.1 °C -18.8 °C 34635.4 hPa SE 6 km/h 6 km/h 91 % 0 mm 0.0 W/m2 CLR
23:19 -18.4 °C -19.1 °C 34635.4 hPa Calm     91 % 0 mm 0.0 W/m2 CLR
23:24 -18.4 °C -19.1 °C 34635.4 hPa Calm     91 % 0 mm 0.0 W/m2 CLR
23:29 -18.4 °C -19.1 °C 34635.4 hPa West 2.6 km/h   91 % 0 mm 0.0 W/m2 CLR
23:35 -18.7 °C -19.4 °C 34635.4 hPa West 11.9 km/h 11.9 km/h 91 % 0 mm 0.0 W/m2 CLR
23:40 -18.7 °C -19.5 °C 34635.4 hPa West 6 km/h 6 km/h 90 % 0 mm 0.0 W/m2 CLR
23:45 -19 °C -19.8 °C 34635.4 hPa West 11.9 km/h 11.9 km/h 90 % 0 mm 0.0 W/m2 CLR
23:50 -19 °C -19.8 °C 34635.4 hPa West 9 km/h 9 km/h 90 % 0 mm 0.0 W/m2 CLR
23:55 -19 °C -19.8 °C 34635.4 hPa West 12.9 km/h 12.9 km/h 90 % 0 mm 0.0 W/m2 CLR
Lo Temps de Massalio
Compliments of Weather Underground - 1.25 mb